createdAt,value
2023-01-09T00:01:32.078Z,5.35
2023-01-09T00:04:58.720Z,5.36
2023-01-09T00:08:25.445Z,5.38
2023-01-09T00:11:55.184Z,5.39
2023-01-09T00:15:22.026Z,5.39
2023-01-09T00:18:48.963Z,5.41
2023-01-09T00:22:15.888Z,5.40
2023-01-09T00:25:44.968Z,5.38
2023-01-09T00:29:13.849Z,5.35
2023-01-09T00:32:42.270Z,5.31
2023-01-09T00:36:12.057Z,5.27
2023-01-09T00:39:39.606Z,5.23
2023-01-09T00:43:08.004Z,5.18
2023-01-09T00:46:39.012Z,5.17
2023-01-09T00:50:15.182Z,5.14
2023-01-09T00:53:44.566Z,5.13
2023-01-09T00:57:13.680Z,5.14
2023-01-09T01:00:40.923Z,5.16
2023-01-09T01:04:21.797Z,5.18
2023-01-09T01:07:49.225Z,5.25
2023-01-09T01:11:16.005Z,5.27
2023-01-09T01:14:42.653Z,5.27
2023-01-09T01:18:10.058Z,5.29
2023-01-09T01:21:37.265Z,5.31
2023-01-09T01:25:04.349Z,5.33
2023-01-09T01:28:31.416Z,5.33
2023-01-09T01:31:58.173Z,5.35
2023-01-09T01:35:26.966Z,5.36
2023-01-09T01:38:53.765Z,5.33
2023-01-09T01:42:20.574Z,5.28
2023-01-09T01:45:47.596Z,5.26
2023-01-09T01:49:16.741Z,5.20
2023-01-09T01:52:46.118Z,5.16
2023-01-09T01:56:19.254Z,5.11
2023-01-09T01:59:51.384Z,5.09
2023-01-09T02:03:24.343Z,5.09
2023-01-09T02:06:54.948Z,5.13
2023-01-09T02:10:23.813Z,5.16
2023-01-09T02:13:51.171Z,5.17
2023-01-09T02:17:32.000Z,5.22
2023-01-09T02:21:03.058Z,5.25
2023-01-09T02:24:56.570Z,5.30
2023-01-09T02:28:53.959Z,5.34
2023-01-09T02:32:36.023Z,5.38
2023-01-09T02:36:11.983Z,5.45
2023-01-09T02:39:48.757Z,5.45
2023-01-09T02:43:17.673Z,5.44
2023-01-09T02:46:44.528Z,5.40
2023-01-09T02:50:20.122Z,5.35
2023-01-09T02:54:11.219Z,5.32
2023-01-09T02:57:55.885Z,5.28
2023-01-09T03:01:32.665Z,5.28
2023-01-09T03:05:08.753Z,5.27
2023-01-09T03:08:41.455Z,5.29
2023-01-09T03:12:13.390Z,5.29
2023-01-09T03:15:43.861Z,5.33
2023-01-09T03:19:15.224Z,5.36
2023-01-09T03:22:47.502Z,5.40
2023-01-09T03:26:15.086Z,5.45
2023-01-09T03:29:41.775Z,5.51
2023-01-09T03:33:08.907Z,5.59
2023-01-09T03:36:36.017Z,5.64
2023-01-09T03:40:02.451Z,5.70
2023-01-09T03:43:28.952Z,5.72
2023-01-09T03:46:55.643Z,5.71
2023-01-09T03:50:22.066Z,5.70
2023-01-09T03:53:48.918Z,5.66
2023-01-09T03:57:16.049Z,5.64
2023-01-09T04:00:42.602Z,5.61
2023-01-09T04:04:09.098Z,5.58
2023-01-09T04:07:35.949Z,5.54
2023-01-09T04:11:03.099Z,5.50
2023-01-09T04:14:30.148Z,5.48
2023-01-09T04:17:56.748Z,5.48
2023-01-09T04:21:23.178Z,5.48
2023-01-09T04:24:50.022Z,5.51
2023-01-09T04:28:16.895Z,5.52
2023-01-09T04:31:43.641Z,5.55
2023-01-09T04:35:12.529Z,5.57
2023-01-09T04:38:39.226Z,5.59
2023-01-09T04:42:06.033Z,5.59
2023-01-09T04:45:32.491Z,5.61
2023-01-09T04:48:58.829Z,5.64
2023-01-09T04:52:25.380Z,5.63
2023-01-09T04:55:52.047Z,5.62
2023-01-09T04:59:18.816Z,5.59
2023-01-09T05:02:45.827Z,5.56
2023-01-09T05:06:13.139Z,5.51
2023-01-09T05:09:40.054Z,5.45
2023-01-09T05:13:07.682Z,5.38
2023-01-09T05:16:35.235Z,5.32
2023-01-09T05:20:02.181Z,5.29
2023-01-09T05:23:29.097Z,5.28
2023-01-09T05:26:55.803Z,5.29
2023-01-09T05:30:26.487Z,5.28
2023-01-09T05:33:53.438Z,5.27
2023-01-09T05:37:20.335Z,5.28
2023-01-09T05:40:46.724Z,5.27
2023-01-09T05:44:13.891Z,5.27
2023-01-09T05:47:40.983Z,5.28
2023-01-09T05:51:07.753Z,5.25
2023-01-09T05:54:35.900Z,5.25
2023-01-09T05:58:02.823Z,5.23
2023-01-09T06:01:29.977Z,5.20
2023-01-09T06:04:57.208Z,5.14
2023-01-09T06:08:23.724Z,5.10
2023-01-09T06:11:51.008Z,5.05
2023-01-09T06:15:21.215Z,5.00
2023-01-09T06:18:47.694Z,4.95
2023-01-09T06:22:14.005Z,4.91
2023-01-09T06:25:40.736Z,4.89
2023-01-09T06:29:08.480Z,4.87
2023-01-09T06:32:35.150Z,4.89
2023-01-09T06:36:01.873Z,4.92
2023-01-09T06:39:28.647Z,4.95
2023-01-09T06:42:55.426Z,4.96
2023-01-09T06:46:24.506Z,5.00
2023-01-09T06:49:51.983Z,5.06
2023-01-09T06:53:18.820Z,5.06
2023-01-09T06:56:45.443Z,5.09
2023-01-09T07:00:15.607Z,5.10
2023-01-09T07:03:42.506Z,5.09
2023-01-09T07:07:10.691Z,5.07
2023-01-09T07:10:37.482Z,5.03
2023-01-09T07:14:04.609Z,4.98
2023-01-09T07:17:33.521Z,4.88
2023-01-09T07:21:00.420Z,4.81
2023-01-09T07:24:30.522Z,4.75
2023-01-09T07:27:57.742Z,4.68
2023-01-09T07:31:28.643Z,4.61
2023-01-09T07:34:56.678Z,4.58
2023-01-09T07:38:23.620Z,4.60
2023-01-09T07:41:49.965Z,4.60
2023-01-09T07:45:17.115Z,4.61
2023-01-09T07:48:43.445Z,4.63
2023-01-09T07:52:10.146Z,4.61
2023-01-09T07:55:36.589Z,4.60
2023-01-09T07:59:03.330Z,4.62
2023-01-09T08:02:32.490Z,4.61
2023-01-09T08:06:03.687Z,4.57
2023-01-09T08:09:31.105Z,4.53
2023-01-09T08:12:58.194Z,4.47
2023-01-09T08:16:28.518Z,4.40
2023-01-09T08:19:55.988Z,4.32
2023-01-09T08:23:27.804Z,4.27
2023-01-09T08:26:56.878Z,4.22
2023-01-09T08:30:25.104Z,4.19
2023-01-09T08:33:54.068Z,4.16
2023-01-09T08:37:24.383Z,4.16
2023-01-09T08:40:54.111Z,4.20
2023-01-09T08:44:51.776Z,4.26
2023-01-09T08:48:20.375Z,4.33
2023-01-09T08:51:46.678Z,4.36
2023-01-09T08:55:13.954Z,4.44
2023-01-09T08:58:40.834Z,4.51
2023-01-09T09:02:07.853Z,4.60
2023-01-09T09:05:36.009Z,4.70
2023-01-09T09:09:03.676Z,4.78
2023-01-09T09:12:30.713Z,4.82
2023-01-09T09:15:57.593Z,4.86
2023-01-09T09:19:25.630Z,4.90
2023-01-09T09:22:52.799Z,4.94
2023-01-09T09:26:19.568Z,4.93
2023-01-09T09:29:46.583Z,4.91
2023-01-09T09:33:13.503Z,4.87
2023-01-09T09:36:41.398Z,4.85
2023-01-09T09:40:19.105Z,4.85
2023-01-09T09:44:21.471Z,4.86
2023-01-09T09:47:56.094Z,4.86
2023-01-09T09:51:46.241Z,4.90
2023-01-09T09:55:22.471Z,4.95
2023-01-09T09:58:52.933Z,5.03
2023-01-09T10:02:29.737Z,5.11
2023-01-09T10:05:59.645Z,5.18
2023-01-09T10:09:37.666Z,5.25
2023-01-09T10:13:26.932Z,5.27
2023-01-09T10:17:11.667Z,5.27
2023-01-09T10:20:56.818Z,5.26
2023-01-09T10:24:36.826Z,5.31
2023-01-09T10:28:28.615Z,5.34
2023-01-09T10:32:12.120Z,5.35
2023-01-09T10:35:48.400Z,5.36
2023-01-09T10:39:23.308Z,5.32
2023-01-09T10:42:56.047Z,5.35
2023-01-09T10:46:28.053Z,5.37
2023-01-09T10:49:57.069Z,5.39
2023-01-09T10:53:28.385Z,5.41
2023-01-09T10:57:00.357Z,5.41
2023-01-09T11:00:27.999Z,5.41
2023-01-09T11:03:54.551Z,5.42
2023-01-09T11:07:24.648Z,5.44
2023-01-09T11:10:53.801Z,5.50
2023-01-09T11:14:28.901Z,5.53
2023-01-09T11:17:56.570Z,5.56
2023-01-09T11:21:36.151Z,5.60
2023-01-09T11:25:06.679Z,5.67
2023-01-09T11:28:35.875Z,5.67
2023-01-09T11:32:03.393Z,5.69
2023-01-09T11:35:34.431Z,5.72
2023-01-09T11:39:04.026Z,5.75
2023-01-09T11:42:49.355Z,5.74
2023-01-09T11:46:33.502Z,5.73
2023-01-09T11:50:09.181Z,5.67
2023-01-09T11:53:51.460Z,5.61
2023-01-09T11:57:19.970Z,5.54
2023-01-09T12:00:56.864Z,5.54
2023-01-09T12:04:29.890Z,5.57
2023-01-09T12:08:06.167Z,5.62
2023-01-09T12:11:43.651Z,5.65
2023-01-09T12:15:24.921Z,5.72
2023-01-09T12:19:05.597Z,5.77
2023-01-09T12:22:40.424Z,5.82
2023-01-09T12:26:17.778Z,5.89
2023-01-09T12:30:01.028Z,5.95
2023-01-09T12:33:38.730Z,6.01
2023-01-09T12:37:26.402Z,6.08
2023-01-09T12:41:23.172Z,6.16
2023-01-09T12:44:56.676Z,6.12
2023-01-09T12:48:38.381Z,6.11
2023-01-09T12:52:11.914Z,6.10
2023-01-09T12:55:41.048Z,6.09
2023-01-09T12:59:30.943Z,6.07
2023-01-09T13:03:12.398Z,6.05
2023-01-09T13:06:46.980Z,6.04
2023-01-09T13:10:26.275Z,6.05
2023-01-09T13:13:59.279Z,6.06
2023-01-09T13:17:31.668Z,6.08
2023-01-09T13:21:00.048Z,6.11
2023-01-09T13:24:33.358Z,6.20
2023-01-09T13:28:06.379Z,6.28
2023-01-09T13:31:51.300Z,6.32
2023-01-09T13:35:19.032Z,6.37
2023-01-09T13:38:58.243Z,6.45
2023-01-09T13:42:46.159Z,6.48
2023-01-09T13:46:16.275Z,6.47
2023-01-09T13:50:02.005Z,6.45
2023-01-09T13:53:51.085Z,6.46
2023-01-09T13:57:30.341Z,6.46
2023-01-09T14:01:08.725Z,6.43
2023-01-09T14:04:46.325Z,6.35
2023-01-09T14:08:19.737Z,6.31
2023-01-09T14:11:49.068Z,6.25
2023-01-09T14:15:31.209Z,6.23
2023-01-09T14:19:04.198Z,6.24
2023-01-09T14:22:42.508Z,6.26
2023-01-09T14:26:23.436Z,6.28
2023-01-09T14:29:52.072Z,6.28
2023-01-09T14:33:32.935Z,6.30
2023-01-09T14:37:02.883Z,6.31
2023-01-09T14:40:30.576Z,6.34
2023-01-09T14:44:03.065Z,6.39
2023-01-09T14:47:38.113Z,6.41
2023-01-09T14:51:08.769Z,6.41
2023-01-09T14:54:39.347Z,6.41
2023-01-09T14:58:21.324Z,6.45
2023-01-09T15:01:55.559Z,6.45
2023-01-09T15:05:27.177Z,6.41
2023-01-09T15:09:02.937Z,6.35
2023-01-09T15:12:30.855Z,6.28
2023-01-09T15:15:57.792Z,6.24
2023-01-09T15:19:26.260Z,6.23
2023-01-09T15:22:55.505Z,6.16
2023-01-09T15:26:29.873Z,6.15
2023-01-09T15:30:02.653Z,6.14
2023-01-09T15:33:30.064Z,6.14
2023-01-09T15:36:58.891Z,6.14
2023-01-09T15:40:33.221Z,6.13
2023-01-09T15:44:00.111Z,6.12
2023-01-09T15:47:30.017Z,6.15
2023-01-09T15:51:02.899Z,6.23
2023-01-09T15:54:33.775Z,6.30
2023-01-09T15:58:03.863Z,6.35
2023-01-09T16:01:33.963Z,6.35
2023-01-09T16:05:09.282Z,6.31
2023-01-09T16:08:42.750Z,6.27
2023-01-09T16:12:21.654Z,6.17
2023-01-09T16:15:50.592Z,6.12
2023-01-09T16:19:34.451Z,6.08
2023-01-09T16:23:03.859Z,6.03
2023-01-09T16:26:32.753Z,6.01
2023-01-09T16:30:01.373Z,5.99
2023-01-09T16:33:31.595Z,6.02
2023-01-09T16:37:01.351Z,6.01
2023-01-09T16:40:39.209Z,6.05
2023-01-09T16:44:10.995Z,6.06
2023-01-09T16:47:38.986Z,6.09
2023-01-09T16:51:07.512Z,6.13
2023-01-09T16:54:39.301Z,6.13
2023-01-09T16:58:06.598Z,6.17
2023-01-09T17:01:35.413Z,6.19
2023-01-09T17:05:04.182Z,6.21
2023-01-09T17:08:35.142Z,6.25
2023-01-09T17:12:04.388Z,6.22
2023-01-09T17:15:38.682Z,6.22
2023-01-09T17:19:08.966Z,6.20
2023-01-09T17:22:38.053Z,6.15
2023-01-09T17:26:24.079Z,6.12
2023-01-09T17:29:51.695Z,6.08
2023-01-09T17:33:20.850Z,6.04
2023-01-09T17:36:48.361Z,6.02
2023-01-09T17:40:24.523Z,5.98
2023-01-09T17:43:52.543Z,5.93
2023-01-09T17:47:20.390Z,5.91
2023-01-09T17:50:52.690Z,5.93
2023-01-09T17:54:21.394Z,5.96
2023-01-09T17:57:48.386Z,6.00
2023-01-09T18:01:17.645Z,6.02
2023-01-09T18:04:45.216Z,6.04
2023-01-09T18:08:14.614Z,6.08
2023-01-09T18:11:43.877Z,6.15
2023-01-09T18:15:12.112Z,6.18
2023-01-09T18:18:40.568Z,6.20
2023-01-09T18:22:07.148Z,6.22
2023-01-09T18:25:40.732Z,6.17
2023-01-09T18:29:07.791Z,6.15
2023-01-09T18:32:48.703Z,6.13
2023-01-09T18:36:16.897Z,6.08
2023-01-09T18:39:44.911Z,6.00
2023-01-09T18:43:16.640Z,5.91
2023-01-09T18:46:47.490Z,5.84
2023-01-09T18:50:15.246Z,5.81
2023-01-09T18:53:41.824Z,5.78
2023-01-09T18:57:08.697Z,5.79
2023-01-09T19:00:35.662Z,5.81
2023-01-09T19:04:03.393Z,5.87
2023-01-09T19:07:31.196Z,5.92
2023-01-09T19:11:00.278Z,5.94
2023-01-09T19:14:27.347Z,5.98
2023-01-09T19:17:54.068Z,6.05
2023-01-09T19:21:22.442Z,6.06
2023-01-09T19:24:49.441Z,6.11
2023-01-09T19:28:16.429Z,6.11
2023-01-09T19:31:45.314Z,6.13
2023-01-09T19:35:12.449Z,6.13
2023-01-09T19:38:39.803Z,6.14
2023-01-09T19:42:08.804Z,6.15
2023-01-09T19:45:35.941Z,6.15
2023-01-09T19:49:05.051Z,6.16
2023-01-09T19:52:32.591Z,6.21
2023-01-09T19:56:09.662Z,6.17
2023-01-09T19:59:40.112Z,6.10
2023-01-09T20:03:07.679Z,6.05
2023-01-09T20:06:39.590Z,6.02
2023-01-09T20:10:09.175Z,5.97
2023-01-09T20:13:35.795Z,5.92
2023-01-09T20:17:04.558Z,5.89
2023-01-09T20:20:32.933Z,5.89
2023-01-09T20:24:02.229Z,5.89
2023-01-09T20:27:28.889Z,5.88
2023-01-09T20:31:00.582Z,5.89
2023-01-09T20:34:28.297Z,5.95
2023-01-09T20:37:56.128Z,6.02
2023-01-09T20:41:26.862Z,6.07
2023-01-09T20:44:54.252Z,6.12
2023-01-09T20:48:21.618Z,6.22
2023-01-09T20:51:50.979Z,6.29
2023-01-09T20:55:18.192Z,6.34
2023-01-09T20:58:45.331Z,6.40
2023-01-09T21:02:16.056Z,6.46
2023-01-09T21:05:44.712Z,6.51
2023-01-09T21:09:11.461Z,6.57
2023-01-09T21:12:38.765Z,6.62
2023-01-09T21:16:09.808Z,6.67
2023-01-09T21:19:37.862Z,6.71
2023-01-09T21:23:04.674Z,6.68
2023-01-09T21:26:32.069Z,6.63
2023-01-09T21:29:59.630Z,6.60
2023-01-09T21:33:26.836Z,6.55
2023-01-09T21:36:54.294Z,6.50
2023-01-09T21:40:21.704Z,6.48
2023-01-09T21:44:06.111Z,6.48
2023-01-09T21:47:34.691Z,6.52
2023-01-09T21:51:05.028Z,6.52
2023-01-09T21:54:33.617Z,6.59
2023-01-09T21:58:01.410Z,6.63
2023-01-09T22:01:35.707Z,6.64
2023-01-09T22:05:02.944Z,6.67
2023-01-09T22:08:33.437Z,6.69
2023-01-09T22:12:02.216Z,6.73
2023-01-09T22:15:30.391Z,6.75
2023-01-09T22:19:01.713Z,6.77
2023-01-09T22:22:29.777Z,6.81
2023-01-09T22:25:56.805Z,6.86
2023-01-09T22:29:23.807Z,6.88
2023-01-09T22:32:51.023Z,6.85
2023-01-09T22:36:18.812Z,6.83
2023-01-09T22:39:46.307Z,6.80
2023-01-09T22:43:16.663Z,6.75
2023-01-09T22:46:44.478Z,6.68
2023-01-09T22:50:13.859Z,6.63
2023-01-09T22:53:41.024Z,6.60
2023-01-09T22:57:08.190Z,6.56
2023-01-09T23:00:35.728Z,6.53
2023-01-09T23:04:04.069Z,6.55
2023-01-09T23:07:32.554Z,6.58
2023-01-09T23:11:07.595Z,6.61
2023-01-09T23:14:37.954Z,6.64
2023-01-09T23:18:05.267Z,6.66
2023-01-09T23:21:32.482Z,6.67
2023-01-09T23:25:00.457Z,6.64
2023-01-09T23:28:28.624Z,6.58
2023-01-09T23:31:56.740Z,6.51
2023-01-09T23:35:25.352Z,6.40
2023-01-09T23:38:54.493Z,6.32
2023-01-09T23:42:39.418Z,6.21
2023-01-09T23:46:06.467Z,6.09
2023-01-09T23:49:32.964Z,5.95
2023-01-09T23:53:00.431Z,5.86
2023-01-09T23:56:28.919Z,5.76
2023-01-09T23:59:55.120Z,5.69
